Terminal Aerodrome Forecast
Issued by NWS

Home | Current Version | Previous Version | Text Only | Print | Product List | Glossary On
Versions: 1 2 3 4 5 6 7 8 9 10 11 12 13 14 15 16 17 18 19 20 21 22 23 24 25
000
FTUS43 KDVN 271000 AAF
TAFCID
TAF AMD
KCID 271032Z 2711/2806 27010KT 3SM -RA BR BKN003 OVC011
     FM271300 27013KT 5SM BR OVC008
     FM271600 29016G24KT P6SM BKN015
     FM272000 29010KT P6SM BKN025=

USA.gov is the U.S. government's official web portal to all federal, state and local government web resources and services.